Addisleigh Park, New York
Current Conditions -  °F | °C
As of 7:51 AM on Friday 19 Dec 2014 (Local Time) from KJFK Reporting Station
Broken Clouds Broken Clouds  
Wind Chill: 30°   Ceiling: 3500
Heat Index: 38°   Visibility: 10mi
Dew Point: 22°   Wind: 12mph
Humidity: 53%   Direction: 340°NNW
Pressure: 30.03"   Gusts: NA
Location:  40.6565°N, 73.7829°W
Report Text: KJFK 191251Z 34010KT 10SM BKN035 03/M06 A3003 RMK AO2 SLP168 T00331056 $
Loading
Personal Weather Stations






























Interactive Weather Map New forecast layout! Learn more

10-Day Weather Forecast

Advertisements
Track Severe Weather on mobile